Time;durP1;ratioP1;P1;durP2;ratioP2;P2;SDS_P1;SDS_P2;PMS_P1;PMS_P2;Temp;Humidity;BMP_temperature;BMP_pressure;BME280_temperature;BME280_humidity;BME280_pressure;Samples;Min_cycle;Max_cycle;Signal;HPM_P1;HPM_P2
2022/08/15 00:00:38;;;;;;;4.03;2.88;;;23.80;1.00;;;;;;7371343;19;20592;-67
2022/08/15 00:03:24;;;;;;;7.32;3.00;;;23.70;1.00;;;;;;7370583;19;20142;-67
2022/08/15 00:06:18;;;;;;;9.25;3.33;;;23.70;1.00;;;;;;7366989;19;20228;-67
2022/08/15 00:09:13;;;;;;;6.00;2.83;;;23.60;1.00;;;;;;7368789;19;20010;-67
2022/08/15 00:11:46;;;;;;;4.55;2.88;;;23.60;1.00;;;;;;7369384;19;20014;-67
2022/08/15 00:14:22;;;;;;;4.80;3.03;;;23.60;1.00;;;;;;7392677;19;20014;-66
2022/08/15 00:17:01;;;;;;;;;;;23.50;1.00;;;;;;7369720;19;20087;-66
2022/08/15 00:19:41;;;;;;;5.95;2.85;;;23.50;1.00;;;;;;7369929;19;19932;-67
2022/08/15 00:22:12;;;;;;;5.67;2.77;;;23.50;1.00;;;;;;7369969;19;20018;-68
2022/08/15 00:24:49;;;;;;;3.80;2.90;;;23.50;1.00;;;;;;7368006;19;20223;-67
2022/08/15 00:27:24;;;;;;;5.78;3.05;;;23.40;1.00;;;;;;7364922;19;20010;-67
2022/08/15 00:29:57;;;;;;;;;;;23.40;1.00;;;;;;7369978;19;20036;-67
2022/08/15 00:32:28;;;;;;;4.20;2.90;;;23.30;1.00;;;;;;7369175;19;19915;-67
2022/08/15 00:38:11;;;;;;;5.32;3.15;;;23.30;1.00;;;;;;7369695;19;20022;-67
2022/08/15 00:43:46;;;;;;;3.88;3.38;;;23.30;1.00;;;;;;7369907;19;20011;-67
2022/08/15 00:46:20;;;;;;;5.03;3.13;;;23.30;1.00;;;;;;7365187;19;20405;-67
2022/08/15 00:48:53;;;;;;;5.78;3.05;;;23.30;1.00;;;;;;7366824;19;20477;-67
2022/08/15 00:51:30;;;;;;;3.78;3.17;;;23.30;1.00;;;;;;7368975;19;20094;-67
2022/08/15 00:54:08;;;;;;;9.65;3.40;;;23.30;1.00;;;;;;7369464;19;20014;-68
2022/08/15 00:57:03;;;;;;;4.63;2.97;;;23.20;1.00;;;;;;7364728;19;20007;-67
2022/08/15 00:59:45;;;;;;;4.68;3.28;;;23.10;1.00;;;;;;7368395;19;20053;-67
2022/08/15 01:02:31;;;;;;;7.43;3.58;;;23.20;1.00;;;;;;7368819;19;20014;-68
2022/08/15 01:05:09;;;;;;;6.82;3.63;;;23.20;1.00;;;;;;7387346;19;20015;-67
2022/08/15 01:07:46;;;;;;;5.78;3.35;;;23.20;1.00;;;;;;7362498;19;20014;-67
2022/08/15 01:10:21;;;;;;;4.30;3.10;;;23.20;1.00;;;;;;7367446;19;20503;-68
2022/08/15 01:12:54;;;;;;;6.10;3.63;;;23.00;1.00;;;;;;7368231;19;20010;-68
2022/08/15 01:15:25;;;;;;;10.43;3.58;;;22.90;1.00;;;;;;7365680;19;20025;-67
2022/08/15 01:18:13;;;;;;;7.97;4.10;;;22.70;1.00;;;;;;7366957;19;20014;-67
2022/08/15 01:21:09;;;;;;;9.35;4.07;;;22.50;1.00;;;;;;7368275;19;20021;-67
2022/08/15 01:23:50;;;;;;;4.65;3.33;;;22.40;1.00;;;;;;7368638;19;20469;-66
2022/08/15 01:26:28;;;;;;;4.72;3.42;;;22.40;1.00;;;;;;7363680;19;20022;-67
2022/08/15 01:29:13;;;;;;;6.90;3.30;;;22.40;1.00;;;;;;7386532;19;20047;-67
2022/08/15 01:31:47;;;;;;;5.72;3.40;;;22.30;1.00;;;;;;7368525;19;20006;-67
2022/08/15 01:34:18;;;;;;;3.67;3.28;;;22.40;1.00;;;;;;7367289;19;20537;-67
2022/08/15 01:36:50;;;;;;;5.82;3.40;;;22.40;1.00;;;;;;7365562;19;20052;-66
2022/08/15 01:39:33;;;;;;;5.07;2.95;;;22.40;1.00;;;;;;7367707;19;20010;-67
2022/08/15 01:42:14;;;;;;;4.35;3.10;;;22.40;1.00;;;;;;7367519;19;20130;-67
2022/08/15 01:44:55;;;;;;;7.55;3.55;;;22.40;1.00;;;;;;7367320;19;20014;-67
2022/08/15 01:47:35;;;;;;;4.50;3.40;;;22.40;1.00;;;;;;7364491;19;20939;-67
2022/08/15 01:50:12;;;;;;;3.38;3.08;;;22.40;1.00;;;;;;7389793;19;20019;-66
2022/08/15 01:53:05;;;;;;;4.25;3.00;;;22.40;1.00;;;;;;7367997;19;20015;-66
2022/08/15 01:55:51;;;;;;;3.28;2.90;;;22.50;1.00;;;;;;7363478;19;20068;-68
2022/08/15 01:58:26;;;;;;;3.97;3.38;;;22.40;1.00;;;;;;7364037;19;20039;-66
2022/08/15 02:01:02;;;;;;;5.25;3.47;;;22.30;1.00;;;;;;7366873;19;20037;-67
2022/08/15 02:03:36;;;;;;;3.83;3.40;;;22.30;1.00;;;;;;7366385;19;20018;-67
2022/08/15 02:06:24;;;;;;;6.00;3.55;;;22.30;1.00;;;;;;7362607;19;20034;-66
2022/08/15 02:09:06;;;;;;;3.58;3.20;;;22.30;1.00;;;;;;7365397;19;20030;-66
2022/08/15 02:11:59;;;;;;;4.00;3.30;;;22.30;1.00;;;;;;7366132;19;20014;-67
2022/08/15 02:14:35;;;;;;;5.10;3.33;;;22.20;1.00;;;;;;7366721;19;20022;-67
2022/08/15 02:17:08;;;;;;;3.63;3.15;;;22.20;1.00;;;;;;7387791;19;20042;-66
2022/08/15 02:19:40;;;;;;;4.18;3.28;;;22.20;1.00;;;;;;7365908;19;20025;-66
2022/08/15 02:22:15;;;;;;;4.88;3.42;;;22.30;1.00;;;;;;7366399;19;20010;-66
2022/08/15 02:24:56;;;;;;;5.20;3.63;;;22.30;1.00;;;;;;7363462;19;20029;-66
2022/08/15 02:27:26;;;;;;;4.18;3.78;;;22.30;1.00;;;;;;7362553;19;20015;-66
2022/08/15 02:29:59;;;;;;;4.63;3.15;;;22.30;1.00;;;;;;7363643;19;20014;-67
2022/08/15 02:32:29;;;;;;;4.03;3.53;;;22.30;1.00;;;;;;7365616;19;20014;-67
2022/08/15 02:35:02;;;;;;;3.70;3.40;;;22.30;1.00;;;;;;7388558;19;20010;-67
2022/08/15 02:37:32;;;;;;;4.22;3.25;;;22.20;1.00;;;;;;7364143;19;20033;-67
2022/08/15 02:40:08;;;;;;;4.87;3.50;;;22.30;1.00;;;;;;7364798;19;20021;-66
2022/08/15 02:43:03;;;;;;;3.60;3.30;;;22.30;1.00;;;;;;7365901;19;20017;-67
2022/08/15 02:45:38;;;;;;;5.05;3.75;;;22.30;1.00;;;;;;7361921;19;20018;-67
2022/08/15 02:48:27;;;;;;;;;;;22.30;1.00;;;;;;7365741;19;20497;-67
2022/08/15 02:50:58;;;;;;;4.93;3.83;;;22.10;1.00;;;;;;7364630;19;19915;-67
2022/08/15 02:53:28;;;;;;;5.10;3.53;;;22.20;1.00;;;;;;7364986;19;20010;-66
2022/08/15 02:55:59;;;;;;;4.57;3.58;;;22.00;1.00;;;;;;7382534;19;20038;-66
2022/08/15 02:58:29;;;;;;;5.03;4.13;;;22.00;1.00;;;;;;7362278;19;20038;-66
2022/08/15 03:01:05;;;;;;;10.15;4.40;;;22.00;1.00;;;;;;7363656;19;20497;-67
2022/08/15 03:03:49;;;;;;;5.15;3.65;;;22.00;1.00;;;;;;7363872;19;20163;-66
2022/08/15 03:06:24;;;;;;;7.45;4.53;;;22.00;1.00;;;;;;7361222;19;20010;-66
2022/08/15 03:09:06;;;;;;;5.97;4.07;;;22.00;1.00;;;;;;7361862;19;20408;-66
2022/08/15 03:11:39;;;;;;;5.55;3.70;;;22.00;1.00;;;;;;7364277;19;20014;-66
2022/08/15 03:14:27;;;;;;;5.38;3.55;;;21.90;1.00;;;;;;7364723;19;20018;-67
2022/08/15 03:17:07;;;;;;;7.78;4.30;;;22.00;1.00;;;;;;7381075;19;20018;-67
2022/08/15 03:19:39;;;;;;;5.43;3.95;;;22.00;1.00;;;;;;7363417;19;20049;-67
2022/08/15 03:22:14;;;;;;;5.60;3.95;;;22.00;1.00;;;;;;7364201;19;20473;-67
2022/08/15 03:25:05;;;;;;;7.45;3.92;;;21.90;1.00;;;;;;7361724;19;20018;-67
2022/08/15 03:27:38;;;;;;;6.93;4.05;;;21.90;1.00;;;;;;7360179;19;20422;-67
2022/08/15 03:30:10;;;;;;;7.22;4.15;;;22.00;1.00;;;;;;7362143;19;20023;-67
2022/08/15 03:32:53;;;;;;;6.07;3.90;;;22.00;1.00;;;;;;7363424;19;20010;-67
2022/08/15 03:35:25;;;;;;;6.68;4.07;;;21.90;1.00;;;;;;7365340;19;20033;-67
2022/08/15 03:37:59;;;;;;;5.53;3.65;;;21.90;1.00;;;;;;7385430;19;20019;-67
2022/08/15 03:40:35;;;;;;;5.15;3.65;;;22.00;1.00;;;;;;7363543;19;20608;-67
2022/08/15 03:43:08;;;;;;;6.53;3.95;;;22.00;1.00;;;;;;7363817;19;20015;-67
2022/08/15 03:45:45;;;;;;;12.15;3.80;;;22.00;1.00;;;;;;7360440;19;20053;-67
2022/08/15 03:48:22;;;;;;;6.97;3.80;;;21.90;1.00;;;;;;7363192;19;20014;-68
2022/08/15 03:50:53;;;;;;;7.75;3.58;;;21.90;1.00;;;;;;7362990;19;20022;-67
2022/08/15 03:53:27;;;;;;;6.55;3.78;;;21.90;1.00;;;;;;7362999;19;20478;-67
2022/08/15 03:55:59;;;;;;;4.82;3.40;;;21.90;1.00;;;;;;7381079;19;20018;-67
2022/08/15 03:58:30;;;;;;;4.70;3.17;;;21.90;1.00;;;;;;7359718;19;20394;-67
2022/08/15 04:01:06;;;;;;;4.50;3.50;;;22.00;1.00;;;;;;7362448;19;20577;-68
2022/08/15 04:03:39;;;;;;;5.55;3.50;;;22.00;1.00;;;;;;7362994;19;20015;-68
2022/08/15 04:06:15;;;;;;;5.38;3.08;;;22.00;1.00;;;;;;7359261;19;20355;-66
2022/08/15 04:08:57;;;;;;;5.10;3.50;;;22.00;1.00;;;;;;7361369;19;20424;-68
2022/08/15 04:11:43;;;;;;;5.53;2.80;;;22.00;1.00;;;;;;7362564;19;20648;-67
2022/08/15 04:14:14;;;;;;;5.20;2.90;;;21.90;1.00;;;;;;7386420;19;20034;-67
2022/08/15 04:17:03;;;;;;;4.40;2.72;;;21.90;1.00;;;;;;7357788;19;20019;-67
2022/08/15 04:19:48;;;;;;;4.75;2.83;;;21.90;1.00;;;;;;7362886;19;20014;-67
2022/08/15 04:22:31;;;;;;;4.40;2.72;;;21.90;1.00;;;;;;7361890;19;20214;-67
2022/08/15 04:25:26;;;;;;;4.70;2.80;;;21.80;1.00;;;;;;7359253;19;20025;-66
2022/08/15 04:28:18;;;;;;;7.53;3.33;;;21.80;1.00;;;;;;7359047;19;20019;-66
2022/08/15 04:31:11;;;;;;;6.03;2.90;;;21.70;1.00;;;;;;7367025;19;20029;-67
2022/08/15 04:33:44;;;;;;;4.65;3.22;;;21.70;1.00;;;;;;7369229;19;20010;-67
2022/08/15 04:36:36;;;;;;;3.47;2.75;;;21.60;1.00;;;;;;7367465;19;20039;-67
2022/08/15 04:39:07;;;;;;;4.43;2.72;;;21.50;1.00;;;;;;7368782;19;20010;-66
2022/08/15 04:41:42;;;;;;;4.47;2.80;;;21.40;1.00;;;;;;7369128;19;20018;-66
2022/08/15 04:44:20;;;;;;;4.90;2.85;;;21.30;1.00;;;;;;7386918;19;20006;-66
2022/08/15 04:46:58;;;;;;;6.10;3.15;;;21.30;1.00;;;;;;7387072;19;20540;-66
2022/08/15 04:49:29;;;;;;;4.78;3.13;;;21.40;1.00;;;;;;7367061;19;20025;-67
2022/08/15 04:52:11;;;;;;;9.80;3.42;;;21.50;1.00;;;;;;7368761;19;20069;-67
2022/08/15 04:54:41;;;;;;;5.72;2.78;;;21.50;1.00;;;;;;7366688;19;20010;-67
2022/08/15 04:57:27;;;;;;;5.05;3.30;;;21.40;1.00;;;;;;7365171;19;20406;-66
2022/08/15 04:59:59;;;;;;;6.53;3.25;;;21.30;1.00;;;;;;7368129;19;20014;-66
2022/08/15 05:02:35;;;;;;;5.97;3.38;;;21.30;1.00;;;;;;7367492;19;20082;-66
2022/08/15 05:05:25;;;;;;;5.15;3.10;;;21.30;1.00;;;;;;7367786;19;20021;-67
2022/08/15 05:08:10;;;;;;;6.18;3.45;;;21.20;1.00;;;;;;7386594;19;20026;-67
2022/08/15 05:10:45;;;;;;;4.65;3.22;;;21.20;1.00;;;;;;7366923;19;20010;-66
2022/08/15 05:13:18;;;;;;;5.40;3.30;;;21.40;1.00;;;;;;7368178;19;20517;-67
2022/08/15 05:15:49;;;;;;;6.18;3.33;;;21.50;1.00;;;;;;7364195;19;20045;-67
2022/08/15 05:18:24;;;;;;;6.53;3.47;;;22.30;1.00;;;;;;7365444;19;20070;-67
2022/08/15 05:20:55;;;;;;;4.22;2.92;;;22.00;1.00;;;;;;7368234;19;20022;-66
2022/08/15 05:23:31;;;;;;;5.05;2.90;;;21.70;1.00;;;;;;7367899;19;20015;-67
2022/08/15 05:26:05;;;;;;;5.10;2.72;;;21.60;1.00;;;;;;7385647;19;20097;-67
2022/08/15 05:28:55;;;;;;;4.68;3.33;;;21.50;1.00;;;;;;7365189;19;20488;-67
2022/08/15 05:31:27;;;;;;;4.18;2.92;;;21.40;1.00;;;;;;7367267;19;20034;-65
2022/08/15 05:34:03;;;;;;;4.43;2.90;;;21.40;1.00;;;;;;7366631;19;20039;-67
2022/08/15 05:36:36;;;;;;;6.65;3.20;;;21.30;1.00;;;;;;7365346;19;20013;-67
2022/08/15 05:39:21;;;;;;;5.03;2.92;;;21.40;1.00;;;;;;7366698;19;20015;-67
2022/08/15 05:42:01;;;;;;;6.05;3.40;;;21.50;1.00;;;;;;7367210;19;20011;-67
2022/08/15 05:44:46;;;;;;;4.60;3.55;;;21.10;1.00;;;;;;7367525;19;20021;-67
2022/08/15 05:47:31;;;;;;;5.53;3.35;;;21.30;1.00;;;;;;7364609;19;20033;-67
2022/08/15 05:50:10;;;;;;;8.07;3.60;;;21.30;1.00;;;;;;7387141;19;20057;-68
2022/08/15 05:52:51;;;;;;;4.25;3.10;;;21.40;1.00;;;;;;7366905;19;20710;-66
2022/08/15 05:55:41;;;;;;;4.85;3.03;;;20.90;1.00;;;;;;7366032;19;20017;-67
2022/08/15 05:58:27;;;;;;;4.07;2.88;;;21.10;1.00;;;;;;7363778;19;20470;-66
2022/08/15 06:01:19;;;;;;;6.38;2.90;;;21.10;1.00;;;;;;7364058;19;20090;-67
2022/08/15 06:03:56;;;;;;;5.47;2.45;;;21.20;1.00;;;;;;7367247;19;20015;-67
2022/08/15 06:06:31;;;;;;;6.47;3.03;;;21.10;1.00;;;;;;7363434;19;20620;-67
2022/08/15 06:09:35;;;;;;;5.70;3.20;;;20.90;1.00;;;;;;7365046;19;20011;-66
2022/08/15 06:12:22;;;;;;;8.65;2.67;;;21.00;1.00;;;;;;7367120;19;20013;-67
2022/08/15 06:15:02;;;;;;;4.13;2.38;;;20.80;1.00;;;;;;7366817;19;20011;-67
2022/08/15 06:17:40;;;;;;;5.05;2.88;;;20.70;1.00;;;;;;7361696;19;20044;-67
2022/08/15 06:20:17;;;;;;;4.10;2.42;;;20.90;1.00;;;;;;7388665;19;20785;-67
2022/08/15 06:23:15;;;;;;;3.85;2.30;;;20.90;1.00;;;;;;7367215;19;20048;-67
2022/08/15 06:26:03;;;;;;;6.75;2.72;;;21.00;1.00;;;;;;7362402;19;20021;-67
2022/08/15 06:28:58;;;;;;;6.93;2.80;;;21.20;1.00;;;;;;7363457;19;20018;-67
2022/08/15 06:31:33;;;;;;;9.02;2.53;;;21.30;1.00;;;;;;7364121;19;20006;-67
2022/08/15 06:34:20;;;;;;;2.83;2.13;;;21.40;1.00;;;;;;7363091;19;20086;-67
2022/08/15 06:37:19;;;;;;;5.70;2.80;;;21.40;1.00;;;;;;7364171;19;20017;-66
2022/08/15 06:40:04;;;;;;;7.45;3.00;;;21.80;1.00;;;;;;7363401;19;20070;-67
2022/08/15 06:42:37;;;;;;;3.75;2.40;;;21.80;1.00;;;;;;7364499;19;20021;-67
2022/08/15 06:45:17;;;;;;;5.63;2.88;;;21.90;1.00;;;;;;7363086;19;20090;-68
2022/08/15 06:47:48;;;;;;;3.00;2.35;;;21.60;1.00;;;;;;7363512;19;20604;-66
2022/08/15 06:50:27;;;;;;;4.20;2.58;;;21.40;1.00;;;;;;7365759;19;20478;-67
2022/08/15 06:53:04;;;;;;;7.82;2.83;;;21.30;1.00;;;;;;7382053;19;20608;-66
2022/08/15 06:55:49;;;;;;;5.00;2.70;;;21.40;1.00;;;;;;7363399;19;20010;-67
2022/08/15 06:58:37;;;;;;;6.95;2.60;;;21.30;1.00;;;;;;7365572;19;20074;-66
2022/08/15 07:01:40;;;;;;;4.32;2.40;;;21.10;1.00;;;;;;7361768;19;20018;-67
2022/08/15 07:04:41;;;;;;;5.93;2.35;;;21.30;1.00;;;;;;7360848;19;20021;-67
2022/08/15 07:07:17;;;;;;;3.80;2.30;;;21.40;1.00;;;;;;7363675;19;20118;-66
2022/08/15 07:09:57;;;;;;;5.65;2.85;;;21.60;1.00;;;;;;7364671;19;20018;-67
2022/08/15 07:12:33;;;;;;;3.80;2.33;;;21.60;1.00;;;;;;7362224;19;20018;-67
2022/08/15 07:15:11;;;;;;;4.80;2.30;;;21.70;1.00;;;;;;7362233;19;20043;-67
2022/08/15 07:17:52;;;;;;;4.32;2.53;;;21.60;1.00;;;;;;7363153;19;20022;-67
2022/08/15 07:20:24;;;;;;;4.03;2.63;;;21.70;1.00;;;;;;7365742;19;20010;-67
2022/08/15 07:23:21;;;;;;;5.68;2.10;;;21.90;1.00;;;;;;7385514;19;20021;-67
2022/08/15 07:25:53;;;;;;;2.85;2.00;;;22.10;1.00;;;;;;7362526;19;20038;-67
2022/08/15 07:28:29;;;;;;;9.38;2.40;;;22.50;1.00;;;;;;7364704;19;20011;-67
2022/08/15 07:31:04;;;;;;;8.00;2.40;;;22.70;1.00;;;;;;7361462;19;20010;-68
2022/08/15 07:33:41;;;;;;;4.30;2.17;;;22.80;1.00;;;;;;7362715;19;20030;-67
2022/08/15 07:36:23;;;;;;;4.28;2.05;;;22.40;1.00;;;;;;7363290;19;20030;-67
2022/08/15 07:39:00;;;;;;;3.83;1.92;;;22.90;1.00;;;;;;7363659;19;20042;-67
2022/08/15 07:41:33;;;;;;;3.80;2.10;;;23.10;1.00;;;;;;7361724;19;20015;-67
2022/08/15 07:44:20;;;;;;;9.20;2.35;;;23.00;1.00;;;;;;7381671;19;20022;-67
2022/08/15 07:46:55;;;;;;;3.50;2.10;;;23.20;1.00;;;;;;7362764;19;20022;-67
2022/08/15 07:49:32;;;;;;;6.75;1.90;;;23.20;1.00;;;;;;7363297;19;20019;-67
2022/08/15 07:52:06;;;;;;;5.18;1.80;;;23.20;1.00;;;;;;7361473;19;20557;-67
2022/08/15 07:54:48;;;;;;;2.78;1.75;;;23.60;1.00;;;;;;7360942;19;20033;-67
2022/08/15 07:57:41;;;;;;;7.45;2.20;;;23.60;1.00;;;;;;7363078;19;20469;-67
2022/08/15 08:00:30;;;;;;;4.97;3.33;;;23.90;1.00;;;;;;7361794;19;20387;-68
2022/08/15 08:03:18;;;;;;;2.88;1.92;;;24.70;1.00;;;;;;7360466;19;20006;-68
2022/08/15 08:05:57;;;;;;;5.93;2.30;;;24.50;1.00;;;;;;7364461;19;20074;-68
2022/08/15 08:08:54;;;;;;;3.63;2.00;;;23.50;1.00;;;;;;7371430;19;20014;-67
2022/08/15 08:11:48;;;;;;;2.72;2.20;;;23.40;1.00;;;;;;7367622;19;20018;-67
2022/08/15 08:14:36;;;;;;;2.78;2.10;;;22.40;1.00;;;;;;7369489;19;20011;-67
2022/08/15 08:17:16;;;;;;;3.90;2.33;;;22.40;1.00;;;;;;7390476;19;20026;-67
2022/08/15 08:19:58;;;;;;;2.10;1.85;;;22.20;1.00;;;;;;7370536;19;20006;-67
2022/08/15 08:22:41;;;;;;;3.95;2.55;;;22.30;1.00;;;;;;7370419;19;20048;-67
2022/08/15 08:25:23;;;;;;;2.80;2.10;;;22.40;1.00;;;;;;7366926;19;20073;-67
2022/08/15 08:28:19;;;;;;;3.88;2.42;;;22.80;1.00;;;;;;7364208;19;20506;-66
2022/08/15 08:31:02;;;;;;;4.32;2.50;;;23.00;1.00;;;;;;7366096;19;20053;-67
2022/08/15 08:33:45;;;;;;;5.20;2.92;;;22.80;1.00;;;;;;7367582;19;20029;-66
2022/08/15 08:36:25;;;;;;;8.43;2.97;;;23.50;1.00;;;;;;7369672;19;20007;-66
2022/08/15 08:39:24;;;;;;;3.67;3.00;;;23.50;1.00;;;;;;7368600;19;20066;-67
2022/08/15 08:42:09;;;;;;;4.15;2.67;;;23.00;1.00;;;;;;7368700;19;20614;-67
2022/08/15 08:45:04;;;;;;;6.03;3.13;;;23.30;1.00;;;;;;7366598;19;20021;-67
2022/08/15 08:48:05;;;;;;;4.93;3.08;;;23.20;1.00;;;;;;7367329;19;20030;-67
2022/08/15 08:50:44;;;;;;;3.92;2.85;;;23.30;1.00;;;;;;7368871;19;20023;-67
2022/08/15 08:53:30;;;;;;;4.68;2.90;;;22.50;1.00;;;;;;7385965;19;20010;-67
2022/08/15 08:56:14;;;;;;;4.32;3.00;;;22.80;1.00;;;;;;7364900;19;20020;-67
2022/08/15 08:59:09;;;;;;;4.78;3.05;;;23.10;1.00;;;;;;7366364;19;20018;-66
2022/08/15 09:01:42;;;;;;;6.15;3.20;;;22.90;1.00;;;;;;7365787;19;20019;-66
2022/08/15 09:04:15;;;;;;;4.55;3.10;;;22.80;1.00;;;;;;7365961;19;20018;-66
2022/08/15 09:06:50;;;;;;;6.25;3.00;;;23.10;1.00;;;;;;7363672;19;20674;-67
2022/08/15 09:09:31;;;;;;;6.00;3.30;;;23.50;1.00;;;;;;7366134;19;20340;-67
2022/08/15 09:15:03;;;;;;;3.67;2.63;;;23.60;1.00;;;;;;7365889;19;20011;-67
2022/08/15 09:17:51;;;;;;;7.03;2.70;;;22.90;1.00;;;;;;7363263;19;20014;-66
2022/08/15 09:20:34;;;;;;;3.53;2.90;;;23.60;1.00;;;;;;7365418;19;20022;-66
2022/08/15 09:23:08;;;;;;;4.28;2.63;;;23.90;1.00;;;;;;7385504;19;20133;-68
2022/08/15 09:25:45;;;;;;;4.40;3.10;;;24.00;1.00;;;;;;7364459;19;20011;-66
2022/08/15 09:28:27;;;;;;;5.95;3.20;;;23.60;1.00;;;;;;7364681;19;20006;-67
2022/08/15 09:31:08;;;;;;;3.92;2.58;;;23.70;1.00;;;;;;7364643;19;20431;-67
2022/08/15 09:34:11;;;;;;;3.22;2.67;;;23.60;1.00;;;;;;7365955;19;20492;-67
2022/08/15 09:37:02;;;;;;;4.15;2.38;;;24.50;1.00;;;;;;7365475;19;20010;-66
2022/08/15 09:40:02;;;;;;;3.67;2.55;;;23.90;1.00;;;;;;7365571;19;20102;-66
2022/08/15 09:43:09;;;;;;;2.95;2.03;;;24.30;1.00;;;;;;7365292;19;20485;-66
2022/08/15 09:46:08;;;;;;;2.97;1.85;;;25.10;1.00;;;;;;7353427;19;20014;-67
2022/08/15 09:49:13;;;;;;;2.53;2.25;;;24.10;1.00;;;;;;7363186;19;20018;-66
2022/08/15 09:52:01;;;;;;;2.50;1.80;;;24.20;1.00;;;;;;7364111;19;20022;-68
2022/08/15 09:54:34;;;;;;;2.60;2.25;;;24.90;1.00;;;;;;7363668;19;20494;-67
2022/08/15 09:57:25;;;;;;;2.63;1.90;;;24.70;1.00;;;;;;7356530;19;20086;-68
2022/08/15 10:00:01;;;;;;;4.50;1.90;;;25.30;1.00;;;;;;7360961;19;20010;-68
2022/08/15 10:02:37;;;;;;;1.90;1.73;;;25.90;1.00;;;;;;7351635;19;20018;-68
2022/08/15 10:05:23;;;;;;;3.65;2.10;;;26.40;1.00;;;;;;7380800;19;20014;-67
2022/08/15 10:07:57;;;;;;;2.10;1.55;;;26.70;1.00;;;;;;7358690;19;20031;-67
2022/08/15 10:10:51;;;;;;;2.23;1.50;;;26.20;1.00;;;;;;7362805;19;20014;-67
2022/08/15 10:13:46;;;;;;;4.68;1.58;;;26.20;1.00;;;;;;7361275;19;20427;-68
2022/08/15 10:16:46;;;;;;;1.60;1.35;;;25.20;1.00;;;;;;7355126;19;20025;-67
2022/08/15 10:19:40;;;;;;;1.85;1.63;;;25.10;1.00;;;;;;7362943;19;20007;-66
2022/08/15 10:22:51;;;;;;;2.03;1.52;;;25.10;1.00;;;;;;7363836;19;20006;-66
2022/08/15 10:25:31;;;;;;;2.92;1.65;;;25.30;1.00;;;;;;7363838;19;20519;-68
2022/08/15 10:28:05;;;;;;;3.08;1.60;;;26.20;1.00;;;;;;7357941;19;20384;-68
2022/08/15 10:31:27;;;;;;;6.00;1.73;;;26.60;1.00;;;;;;7362947;19;20015;-68
2022/08/15 10:34:32;;;;;;;3.17;1.58;;;26.60;1.00;;;;;;7362858;19;20070;-66
2022/08/15 10:37:21;;;;;;;2.08;1.60;;;25.50;1.00;;;;;;7354741;19;20098;-71
2022/08/15 10:40:19;;;;;;;2.08;1.27;;;26.20;1.00;;;;;;7362270;19;20807;-68
2022/08/15 10:43:10;;;;;;;1.92;1.30;;;26.00;1.00;;;;;;7363125;19;20082;-68
2022/08/15 10:45:49;;;;;;;2.78;1.45;;;25.90;1.00;;;;;;7359772;19;20003;-67
2022/08/15 10:48:46;;;;;;;1.90;1.60;;;25.80;1.00;;;;;;7363875;19;20033;-70
2022/08/15 10:51:29;;;;;;;1.95;1.50;;;25.70;1.00;;;;;;7363808;19;20019;-66
2022/08/15 10:54:42;;;;;;;3.17;1.58;;;25.60;1.00;;;;;;7362473;19;20082;-68
2022/08/15 10:57:15;;;;;;;2.47;1.70;;;26.10;1.00;;;;;;7356839;19;20141;-69
2022/08/15 10:59:52;;;;;;;5.20;1.77;;;25.70;1.00;;;;;;7362211;19;20018;-67
2022/08/15 11:02:36;;;;;;;2.47;1.75;;;26.30;1.00;;;;;;7362898;19;20014;-67
2022/08/15 11:05:19;;;;;;;2.63;1.40;;;26.10;1.00;;;;;;7384660;19;20015;-67
2022/08/15 11:07:52;;;;;;;3.47;1.70;;;27.00;1.00;;;;;;7353581;19;20014;-69
2022/08/15 11:10:32;;;;;;;2.50;1.50;;;27.10;1.00;;;;;;7361596;19;20018;-68
2022/08/15 11:13:09;;;;;;;3.38;1.60;;;27.00;1.00;;;;;;7361219;19;20078;-67
2022/08/15 11:15:54;;;;;;;3.25;1.75;;;26.80;1.00;;;;;;7356689;19;20401;-67
2022/08/15 11:18:30;;;;;;;2.10;1.60;;;26.90;1.00;;;;;;7362330;19;20691;-67
2022/08/15 11:21:15;;;;;;;3.70;1.60;;;26.20;1.00;;;;;;7362013;19;20618;-67
2022/08/15 11:23:54;;;;;;;2.83;1.40;;;26.40;1.00;;;;;;7362281;19;20010;-67
2022/08/15 11:26:32;;;;;;;2.85;1.70;;;26.70;1.00;;;;;;7354391;19;20007;-68
2022/08/15 11:29:15;;;;;;;2.88;1.60;;;27.10;1.00;;;;;;7381495;19;20017;-68
2022/08/15 11:31:48;;;;;;;2.92;1.55;;;27.40;1.00;;;;;;7362443;19;20010;-66
2022/08/15 11:34:34;;;;;;;2.28;1.50;;;27.10;1.00;;;;;;7360626;19;20025;-67
2022/08/15 11:37:17;;;;;;;3.35;1.77;;;26.80;1.00;;;;;;7353488;19;20355;-68
2022/08/15 11:39:50;;;;;;;4.32;1.80;;;26.50;1.00;;;;;;7365072;19;20010;-67
2022/08/15 11:42:24;;;;;;;3.08;1.75;;;26.40;1.00;;;;;;7367978;19;20006;-66
2022/08/15 11:45:00;;;;;;;4.47;1.65;;;26.60;1.00;;;;;;7369667;19;20014;-66
2022/08/15 11:47:33;;;;;;;2.50;1.58;;;26.60;1.00;;;;;;7360005;19;20089;-66
2022/08/15 11:50:08;;;;;;;2.30;1.70;;;26.80;1.00;;;;;;7391074;19;20022;-66
2022/08/15 11:52:50;;;;;;;2.78;1.80;;;27.10;1.00;;;;;;7368587;19;20690;-67
2022/08/15 11:55:25;;;;;;;3.88;1.52;;;27.00;1.00;;;;;;7368995;19;20038;-68
2022/08/15 11:58:03;;;;;;;4.18;1.60;;;27.50;1.00;;;;;;7364558;19;20048;-66
2022/08/15 12:00:44;;;;;;;1.95;1.60;;;27.10;1.00;;;;;;7368690;19;20014;-66
2022/08/15 12:03:23;;;;;;;2.95;2.00;;;26.80;1.00;;;;;;7368080;19;20011;-67
2022/08/15 12:06:24;;;;;;;2.28;1.63;;;27.20;1.00;;;;;;7361004;19;20014;-67
2022/08/15 12:09:21;;;;;;;3.80;1.50;;;26.60;1.00;;;;;;7368438;19;20014;-67
2022/08/15 12:12:26;;;;;;;2.75;1.83;;;26.80;1.00;;;;;;7368087;19;20014;-66
2022/08/15 12:15:13;;;;;;;2.78;1.60;;;26.60;1.00;;;;;;7367063;19;20150;-67
2022/08/15 12:18:13;;;;;;;4.70;1.90;;;27.00;1.00;;;;;;7359909;19;20014;-66
2022/08/15 12:21:10;;;;;;;2.58;1.88;;;27.40;1.00;;;;;;7367949;19;20782;-66
2022/08/15 12:23:49;;;;;;;2.58;1.80;;;27.20;1.00;;;;;;7367401;19;20014;-67
2022/08/15 12:26:26;;;;;;;3.15;1.90;;;27.60;1.00;;;;;;7359736;19;20017;-68
2022/08/15 12:29:17;;;;;;;3.17;1.83;;;27.60;1.00;;;;;;7389373;19;20030;-69
2022/08/15 12:31:53;;;;;;;3.78;2.20;;;27.10;1.00;;;;;;7367737;19;20346;-67
2022/08/15 12:34:26;;;;;;;4.68;2.20;;;27.00;1.00;;;;;;7364459;19;20370;-66
2022/08/15 12:37:02;;;;;;;2.10;1.90;;;27.20;1.00;;;;;;7358080;19;20022;-67
2022/08/15 12:39:41;;;;;;;4.53;1.95;;;27.20;1.00;;;;;;7367101;19;20025;-66
2022/08/15 12:42:15;;;;;;;2.38;1.73;;;27.60;1.00;;;;;;7367830;19;20010;-68
2022/08/15 12:45:09;;;;;;;4.25;1.70;;;27.70;1.00;;;;;;7368388;19;20010;-67
2022/08/15 12:47:46;;;;;;;2.03;1.70;;;28.40;1.00;;;;;;7357220;19;20014;-67
2022/08/15 12:50:36;;;;;;;2.92;2.10;;;28.70;1.00;;;;;;7365920;19;20377;-67
2022/08/15 12:53:08;;;;;;;3.90;2.10;;;27.60;1.00;;;;;;7387626;19;20010;-67
2022/08/15 12:55:40;;;;;;;2.65;2.10;;;27.90;1.00;;;;;;7364234;19;21574;-67
2022/08/15 12:58:11;;;;;;;3.00;1.85;;;28.30;1.00;;;;;;7362511;19;20014;-68
2022/08/15 13:00:48;;;;;;;9.13;2.40;;;28.30;1.00;;;;;;7366576;19;20046;-68
2022/08/15 13:03:35;;;;;;;3.78;2.17;;;28.10;1.00;;;;;;7364236;19;20037;-67
2022/08/15 13:06:32;;;;;;;3.00;1.70;;;27.50;1.00;;;;;;7357887;19;20010;-66
2022/08/15 13:09:05;;;;;;;3.08;2.00;;;28.10;1.00;;;;;;7366120;19;20139;-67
2022/08/15 13:11:36;;;;;;;4.00;3.22;;;28.40;1.00;;;;;;7366750;19;20026;-67
2022/08/15 13:14:06;;;;;;;2.75;1.85;;;28.50;1.00;;;;;;7387049;19;20040;-68
2022/08/15 13:16:38;;;;;;;2.97;2.05;;;28.00;1.00;;;;;;7358273;19;20013;-66
2022/08/15 13:23:34;;;;;;;2.40;1.85;;;28.00;1.00;;;;;;7364864;19;20481;-68
2022/08/15 13:25:08;;;;;;;3.08;2.20;;;28.00;1.00;;;;;;7365204;19;20142;-68
2022/08/15 13:27:38;;;;;;;2.95;2.00;;;28.20;1.00;;;;;;7358740;19;20030;-67
2022/08/15 13:30:15;;;;;;;2.63;2.00;;;27.80;1.00;;;;;;7364519;19;20021;-67
2022/08/15 13:32:50;;;;;;;3.10;2.00;;;28.00;1.00;;;;;;7365537;19;20360;-67
2022/08/15 13:35:24;;;;;;;4.05;2.63;;;28.30;1.00;;;;;;7367441;19;20033;-67
2022/08/15 13:38:00;;;;;;;3.83;1.98;;;28.60;1.00;;;;;;7382814;19;20014;-67
2022/08/15 13:40:35;;;;;;;2.55;1.90;;;27.80;1.00;;;;;;7363674;19;20045;-67
2022/08/15 13:43:11;;;;;;;5.18;1.98;;;28.10;1.00;;;;;;7364078;19;20018;-67
2022/08/15 13:45:43;;;;;;;3.13;2.03;;;27.40;1.00;;;;;;7361658;19;20018;-67
2022/08/15 13:48:34;;;;;;;2.67;2.00;;;27.50;1.00;;;;;;7362737;19;20072;-67
2022/08/15 13:51:13;;;;;;;4.80;2.38;;;27.50;1.00;;;;;;7364173;19;20094;-67
2022/08/15 13:53:44;;;;;;;2.90;2.20;;;27.30;1.00;;;;;;7364104;19;20021;-66
2022/08/15 13:56:36;;;;;;;2.58;2.20;;;27.10;1.00;;;;;;7356292;19;20021;-67
2022/08/15 13:59:11;;;;;;;3.03;1.90;;;27.00;1.00;;;;;;7385980;19;20015;-66
2022/08/15 14:01:45;;;;;;;4.07;2.70;;;27.20;1.00;;;;;;7361217;19;20475;-67
2022/08/15 14:04:18;;;;;;;4.40;2.10;;;27.20;1.00;;;;;;7359173;19;20014;-67
2022/08/15 14:06:52;;;;;;;3.70;2.05;;;27.10;1.00;;;;;;7353574;19;20011;-67
2022/08/15 14:09:26;;;;;;;3.00;2.63;;;26.70;1.00;;;;;;7364635;19;20038;-67
2022/08/15 14:12:16;;;;;;;2.60;1.95;;;26.70;1.00;;;;;;7364865;19;20476;-67
2022/08/15 14:14:47;;;;;;;4.43;2.75;;;26.60;1.00;;;;;;7363571;19;20010;-66
2022/08/15 14:17:34;;;;;;;6.35;2.30;;;26.70;1.00;;;;;;7353908;19;20014;-66
2022/08/15 14:20:09;;;;;;;3.00;2.30;;;26.20;1.00;;;;;;7384982;19;20058;-67
2022/08/15 14:23:00;;;;;;;3.90;2.53;;;26.10;1.00;;;;;;7363732;19;20048;-67